sensor_id;sensor_type;location;lat;lon;timestamp;P1;durP1;ratioP1;P2;durP2;ratioP2
485;SDS011;229;48.734;9.340;2022-12-18T00:00:48;113.63;;;41.10;;
485;SDS011;229;48.734;9.340;2022-12-18T00:03:15;119.25;;;42.47;;
485;SDS011;229;48.734;9.340;2022-12-18T00:05:46;129.38;;;41.50;;
485;SDS011;229;48.734;9.340;2022-12-18T00:08:13;131.20;;;40.60;;
485;SDS011;229;48.734;9.340;2022-12-18T00:10:41;132.35;;;43.00;;
485;SDS011;229;48.734;9.340;2022-12-18T00:13:10;119.53;;;40.47;;
485;SDS011;229;48.734;9.340;2022-12-18T00:15:37;118.88;;;42.60;;
485;SDS011;229;48.734;9.340;2022-12-18T00:18:05;145.85;;;42.72;;
485;SDS011;229;48.734;9.340;2022-12-18T00:20:35;115.28;;;43.00;;
485;SDS011;229;48.734;9.340;2022-12-18T00:23:03;155.80;;;43.08;;
485;SDS011;229;48.734;9.340;2022-12-18T00:25:32;136.10;;;43.10;;
485;SDS011;229;48.734;9.340;2022-12-18T00:27:59;153.63;;;42.50;;
485;SDS011;229;48.734;9.340;2022-12-18T00:30:28;129.80;;;41.80;;
485;SDS011;229;48.734;9.340;2022-12-18T00:32:55;115.85;;;40.53;;
485;SDS011;229;48.734;9.340;2022-12-18T00:35:25;129.90;;;44.92;;
485;SDS011;229;48.734;9.340;2022-12-18T00:37:52;129.68;;;43.17;;
485;SDS011;229;48.734;9.340;2022-12-18T00:40:20;127.60;;;40.40;;
485;SDS011;229;48.734;9.340;2022-12-18T00:42:47;116.57;;;42.60;;
485;SDS011;229;48.734;9.340;2022-12-18T00:45:26;127.78;;;41.92;;
485;SDS011;229;48.734;9.340;2022-12-18T00:47:55;119.70;;;41.03;;
485;SDS011;229;48.734;9.340;2022-12-18T00:50:23;138.77;;;44.55;;
485;SDS011;229;48.734;9.340;2022-12-18T00:52:51;131.88;;;42.63;;
485;SDS011;229;48.734;9.340;2022-12-18T00:55:18;134.48;;;41.83;;
485;SDS011;229;48.734;9.340;2022-12-18T00:57:46;121.65;;;41.75;;
485;SDS011;229;48.734;9.340;2022-12-18T01:00:14;130.18;;;45.13;;
485;SDS011;229;48.734;9.340;2022-12-18T01:02:42;136.57;;;42.72;;
485;SDS011;229;48.734;9.340;2022-12-18T01:05:11;136.30;;;43.72;;
485;SDS011;229;48.734;9.340;2022-12-18T01:07:38;131.23;;;45.92;;
485;SDS011;229;48.734;9.340;2022-12-18T01:10:06;152.80;;;45.20;;
485;SDS011;229;48.734;9.340;2022-12-18T01:12:33;126.85;;;40.90;;
485;SDS011;229;48.734;9.340;2022-12-18T01:15:00;121.47;;;42.00;;
485;SDS011;229;48.734;9.340;2022-12-18T01:17:28;132.75;;;44.38;;
485;SDS011;229;48.734;9.340;2022-12-18T01:19:55;118.60;;;42.42;;
485;SDS011;229;48.734;9.340;2022-12-18T01:22:23;136.23;;;44.55;;
485;SDS011;229;48.734;9.340;2022-12-18T01:24:51;148.75;;;44.05;;
485;SDS011;229;48.734;9.340;2022-12-18T01:27:18;138.23;;;43.08;;
485;SDS011;229;48.734;9.340;2022-12-18T01:29:45;124.55;;;40.80;;
485;SDS011;229;48.734;9.340;2022-12-18T01:32:12;135.70;;;42.55;;
485;SDS011;229;48.734;9.340;2022-12-18T01:34:39;128.93;;;42.95;;
485;SDS011;229;48.734;9.340;2022-12-18T01:37:06;136.13;;;44.65;;
485;SDS011;229;48.734;9.340;2022-12-18T01:39:35;107.28;;;37.35;;
485;SDS011;229;48.734;9.340;2022-12-18T01:42:02;135.45;;;40.85;;
485;SDS011;229;48.734;9.340;2022-12-18T01:44:51;105.43;;;36.78;;
485;SDS011;229;48.734;9.340;2022-12-18T01:47:20;104.95;;;38.33;;
485;SDS011;229;48.734;9.340;2022-12-18T01:49:48;110.20;;;37.70;;
485;SDS011;229;48.734;9.340;2022-12-18T01:52:16;104.40;;;39.47;;
485;SDS011;229;48.734;9.340;2022-12-18T01:54:45;110.43;;;37.97;;
485;SDS011;229;48.734;9.340;2022-12-18T01:57:13;108.35;;;38.55;;
485;SDS011;229;48.734;9.340;2022-12-18T01:59:40;117.85;;;40.30;;
485;SDS011;229;48.734;9.340;2022-12-18T02:02:09;103.80;;;35.95;;
485;SDS011;229;48.734;9.340;2022-12-18T02:04:36;110.85;;;37.75;;
485;SDS011;229;48.734;9.340;2022-12-18T02:07:05;109.45;;;40.83;;
485;SDS011;229;48.734;9.340;2022-12-18T02:09:36;110.05;;;38.35;;
485;SDS011;229;48.734;9.340;2022-12-18T02:12:09;93.90;;;35.92;;
485;SDS011;229;48.734;9.340;2022-12-18T02:14:40;104.30;;;34.72;;
485;SDS011;229;48.734;9.340;2022-12-18T02:17:11;97.63;;;34.22;;
485;SDS011;229;48.734;9.340;2022-12-18T02:19:44;100.40;;;37.95;;
485;SDS011;229;48.734;9.340;2022-12-18T02:22:17;100.20;;;35.55;;
485;SDS011;229;48.734;9.340;2022-12-18T02:24:51;108.80;;;36.60;;
485;SDS011;229;48.734;9.340;2022-12-18T02:27:24;97.15;;;35.17;;
485;SDS011;229;48.734;9.340;2022-12-18T02:29:53;95.35;;;33.75;;
485;SDS011;229;48.734;9.340;2022-12-18T02:32:22;98.30;;;36.00;;
485;SDS011;229;48.734;9.340;2022-12-18T02:34:51;95.82;;;35.35;;
485;SDS011;229;48.734;9.340;2022-12-18T02:37:19;111.07;;;35.92;;
485;SDS011;229;48.734;9.340;2022-12-18T02:39:47;101.13;;;35.70;;
485;SDS011;229;48.734;9.340;2022-12-18T02:42:15;95.68;;;35.28;;
485;SDS011;229;48.734;9.340;2022-12-18T02:44:44;113.55;;;38.40;;
485;SDS011;229;48.734;9.340;2022-12-18T02:47:12;98.95;;;35.70;;
485;SDS011;229;48.734;9.340;2022-12-18T02:49:42;94.35;;;33.88;;
485;SDS011;229;48.734;9.340;2022-12-18T02:52:12;101.25;;;34.05;;
485;SDS011;229;48.734;9.340;2022-12-18T02:54:47;92.30;;;33.67;;
485;SDS011;229;48.734;9.340;2022-12-18T02:57:18;99.80;;;33.95;;
485;SDS011;229;48.734;9.340;2022-12-18T02:59:52;86.35;;;33.75;;
485;SDS011;229;48.734;9.340;2022-12-18T03:02:21;94.13;;;33.83;;
485;SDS011;229;48.734;9.340;2022-12-18T03:04:53;92.47;;;34.75;;
485;SDS011;229;48.734;9.340;2022-12-18T03:07:36;87.88;;;32.45;;
485;SDS011;229;48.734;9.340;2022-12-18T03:10:04;90.63;;;32.95;;
485;SDS011;229;48.734;9.340;2022-12-18T03:12:34;91.97;;;32.88;;
485;SDS011;229;48.734;9.340;2022-12-18T03:15:04;91.15;;;32.22;;
485;SDS011;229;48.734;9.340;2022-12-18T03:17:33;85.32;;;33.13;;
485;SDS011;229;48.734;9.340;2022-12-18T03:20:02;76.53;;;31.85;;
485;SDS011;229;48.734;9.340;2022-12-18T03:22:30;77.55;;;30.60;;
485;SDS011;229;48.734;9.340;2022-12-18T03:24:58;89.57;;;32.35;;
485;SDS011;229;48.734;9.340;2022-12-18T03:27:27;82.65;;;31.50;;
485;SDS011;229;48.734;9.340;2022-12-18T03:29:56;89.20;;;31.17;;
485;SDS011;229;48.734;9.340;2022-12-18T03:32:35;84.93;;;32.35;;
485;SDS011;229;48.734;9.340;2022-12-18T03:35:03;80.30;;;30.48;;
485;SDS011;229;48.734;9.340;2022-12-18T03:37:31;83.10;;;31.00;;
485;SDS011;229;48.734;9.340;2022-12-18T03:39:58;81.72;;;30.48;;
485;SDS011;229;48.734;9.340;2022-12-18T03:42:26;92.47;;;31.95;;
485;SDS011;229;48.734;9.340;2022-12-18T03:44:55;76.63;;;29.20;;
485;SDS011;229;48.734;9.340;2022-12-18T03:47:25;79.78;;;31.08;;
485;SDS011;229;48.734;9.340;2022-12-18T03:49:56;72.20;;;30.77;;
485;SDS011;229;48.734;9.340;2022-12-18T03:52:24;67.78;;;28.02;;
485;SDS011;229;48.734;9.340;2022-12-18T03:54:53;81.00;;;31.65;;
485;SDS011;229;48.734;9.340;2022-12-18T03:57:23;94.53;;;31.85;;
485;SDS011;229;48.734;9.340;2022-12-18T03:59:53;75.25;;;30.67;;
485;SDS011;229;48.734;9.340;2022-12-18T04:02:21;86.15;;;32.05;;
485;SDS011;229;48.734;9.340;2022-12-18T04:04:49;80.68;;;30.38;;
485;SDS011;229;48.734;9.340;2022-12-18T04:07:19;84.95;;;32.47;;
485;SDS011;229;48.734;9.340;2022-12-18T04:09:47;80.03;;;31.42;;
485;SDS011;229;48.734;9.340;2022-12-18T04:12:15;83.90;;;30.67;;
485;SDS011;229;48.734;9.340;2022-12-18T04:14:42;74.90;;;27.75;;
485;SDS011;229;48.734;9.340;2022-12-18T04:17:09;71.75;;;29.42;;
485;SDS011;229;48.734;9.340;2022-12-18T04:19:37;81.75;;;29.60;;
485;SDS011;229;48.734;9.340;2022-12-18T04:22:04;68.85;;;29.63;;
485;SDS011;229;48.734;9.340;2022-12-18T04:24:32;69.50;;;26.77;;
485;SDS011;229;48.734;9.340;2022-12-18T04:26:59;76.32;;;29.10;;
485;SDS011;229;48.734;9.340;2022-12-18T04:29:27;68.57;;;26.98;;
485;SDS011;229;48.734;9.340;2022-12-18T04:31:54;74.07;;;26.75;;
485;SDS011;229;48.734;9.340;2022-12-18T04:34:21;66.68;;;27.70;;
485;SDS011;229;48.734;9.340;2022-12-18T04:36:48;67.70;;;26.75;;
485;SDS011;229;48.734;9.340;2022-12-18T04:39:16;77.72;;;24.75;;
485;SDS011;229;48.734;9.340;2022-12-18T04:41:44;57.42;;;24.10;;
485;SDS011;229;48.734;9.340;2022-12-18T04:44:11;58.20;;;24.55;;
485;SDS011;229;48.734;9.340;2022-12-18T04:46:39;78.47;;;26.98;;
485;SDS011;229;48.734;9.340;2022-12-18T04:49:06;61.35;;;25.60;;
485;SDS011;229;48.734;9.340;2022-12-18T04:51:35;68.28;;;27.15;;
485;SDS011;229;48.734;9.340;2022-12-18T04:54:02;63.95;;;24.02;;
485;SDS011;229;48.734;9.340;2022-12-18T04:56:30;62.63;;;24.08;;
485;SDS011;229;48.734;9.340;2022-12-18T04:58:58;60.75;;;24.55;;
485;SDS011;229;48.734;9.340;2022-12-18T05:01:25;65.88;;;27.00;;
485;SDS011;229;48.734;9.340;2022-12-18T05:03:53;73.07;;;28.20;;
485;SDS011;229;48.734;9.340;2022-12-18T05:06:20;60.00;;;24.30;;
485;SDS011;229;48.734;9.340;2022-12-18T05:08:47;55.15;;;24.95;;
485;SDS011;229;48.734;9.340;2022-12-18T05:11:14;62.47;;;25.80;;
485;SDS011;229;48.734;9.340;2022-12-18T05:13:42;56.63;;;24.33;;
485;SDS011;229;48.734;9.340;2022-12-18T05:16:11;59.53;;;25.70;;
485;SDS011;229;48.734;9.340;2022-12-18T05:18:39;62.90;;;24.67;;
485;SDS011;229;48.734;9.340;2022-12-18T05:21:06;58.63;;;25.42;;
485;SDS011;229;48.734;9.340;2022-12-18T05:23:35;66.82;;;23.15;;
485;SDS011;229;48.734;9.340;2022-12-18T05:26:03;63.63;;;25.83;;
485;SDS011;229;48.734;9.340;2022-12-18T05:28:31;54.80;;;24.30;;
485;SDS011;229;48.734;9.340;2022-12-18T05:30:59;52.90;;;23.60;;
485;SDS011;229;48.734;9.340;2022-12-18T05:33:29;65.43;;;25.85;;
485;SDS011;229;48.734;9.340;2022-12-18T05:35:57;62.92;;;24.30;;
485;SDS011;229;48.734;9.340;2022-12-18T05:38:25;60.55;;;24.35;;
485;SDS011;229;48.734;9.340;2022-12-18T05:40:53;68.60;;;25.58;;
485;SDS011;229;48.734;9.340;2022-12-18T05:43:20;55.70;;;24.77;;
485;SDS011;229;48.734;9.340;2022-12-18T05:45:48;59.67;;;24.77;;
485;SDS011;229;48.734;9.340;2022-12-18T05:48:16;66.13;;;25.40;;
485;SDS011;229;48.734;9.340;2022-12-18T05:50:45;58.58;;;23.33;;
485;SDS011;229;48.734;9.340;2022-12-18T05:53:13;54.28;;;26.25;;
485;SDS011;229;48.734;9.340;2022-12-18T05:55:40;58.13;;;24.50;;
485;SDS011;229;48.734;9.340;2022-12-18T05:58:09;61.25;;;24.30;;
485;SDS011;229;48.734;9.340;2022-12-18T06:00:37;60.05;;;23.27;;
485;SDS011;229;48.734;9.340;2022-12-18T06:03:05;60.88;;;24.38;;
485;SDS011;229;48.734;9.340;2022-12-18T06:05:34;58.17;;;25.58;;
485;SDS011;229;48.734;9.340;2022-12-18T06:08:02;66.00;;;24.88;;
485;SDS011;229;48.734;9.340;2022-12-18T06:10:30;50.47;;;22.75;;
485;SDS011;229;48.734;9.340;2022-12-18T06:12:57;60.83;;;24.27;;
485;SDS011;229;48.734;9.340;2022-12-18T06:15:24;63.75;;;23.85;;
485;SDS011;229;48.734;9.340;2022-12-18T06:17:51;62.40;;;25.23;;
485;SDS011;229;48.734;9.340;2022-12-18T06:20:18;56.28;;;23.45;;
485;SDS011;229;48.734;9.340;2022-12-18T06:22:46;66.63;;;26.83;;
485;SDS011;229;48.734;9.340;2022-12-18T06:25:14;62.13;;;24.45;;
485;SDS011;229;48.734;9.340;2022-12-18T06:27:42;63.03;;;21.92;;
485;SDS011;229;48.734;9.340;2022-12-18T06:30:09;61.63;;;26.48;;
485;SDS011;229;48.734;9.340;2022-12-18T06:32:37;66.00;;;25.33;;
485;SDS011;229;48.734;9.340;2022-12-18T06:35:05;66.00;;;24.75;;
485;SDS011;229;48.734;9.340;2022-12-18T06:37:32;61.72;;;25.27;;
485;SDS011;229;48.734;9.340;2022-12-18T06:39:59;58.70;;;22.60;;
485;SDS011;229;48.734;9.340;2022-12-18T06:42:28;52.70;;;22.00;;
485;SDS011;229;48.734;9.340;2022-12-18T06:44:55;59.72;;;22.05;;
485;SDS011;229;48.734;9.340;2022-12-18T06:47:22;51.33;;;21.60;;
485;SDS011;229;48.734;9.340;2022-12-18T06:49:49;56.38;;;23.42;;
485;SDS011;229;48.734;9.340;2022-12-18T06:52:17;52.65;;;23.55;;
485;SDS011;229;48.734;9.340;2022-12-18T06:54:44;50.60;;;23.25;;
485;SDS011;229;48.734;9.340;2022-12-18T06:57:11;56.72;;;22.05;;
485;SDS011;229;48.734;9.340;2022-12-18T06:59:40;63.95;;;24.45;;
485;SDS011;229;48.734;9.340;2022-12-18T07:02:09;59.22;;;22.90;;
485;SDS011;229;48.734;9.340;2022-12-18T07:04:37;69.07;;;24.38;;
485;SDS011;229;48.734;9.340;2022-12-18T07:07:04;43.92;;;21.67;;
485;SDS011;229;48.734;9.340;2022-12-18T07:09:31;55.85;;;21.25;;
485;SDS011;229;48.734;9.340;2022-12-18T07:11:58;53.10;;;22.30;;
485;SDS011;229;48.734;9.340;2022-12-18T07:14:26;51.65;;;22.75;;
485;SDS011;229;48.734;9.340;2022-12-18T07:16:54;59.03;;;26.42;;
485;SDS011;229;48.734;9.340;2022-12-18T07:19:21;55.38;;;24.27;;
485;SDS011;229;48.734;9.340;2022-12-18T07:21:49;56.42;;;25.40;;
485;SDS011;229;48.734;9.340;2022-12-18T07:24:16;60.80;;;22.55;;
485;SDS011;229;48.734;9.340;2022-12-18T07:26:45;60.38;;;23.42;;
485;SDS011;229;48.734;9.340;2022-12-18T07:29:12;61.53;;;23.05;;
485;SDS011;229;48.734;9.340;2022-12-18T07:31:42;56.63;;;22.30;;
485;SDS011;229;48.734;9.340;2022-12-18T07:34:11;56.38;;;24.00;;
485;SDS011;229;48.734;9.340;2022-12-18T07:36:38;56.10;;;25.60;;
485;SDS011;229;48.734;9.340;2022-12-18T07:39:05;54.65;;;23.00;;
485;SDS011;229;48.734;9.340;2022-12-18T07:41:33;57.60;;;25.20;;
485;SDS011;229;48.734;9.340;2022-12-18T07:44:00;53.17;;;22.90;;
485;SDS011;229;48.734;9.340;2022-12-18T07:46:27;60.90;;;24.17;;
485;SDS011;229;48.734;9.340;2022-12-18T07:48:54;59.08;;;24.92;;
485;SDS011;229;48.734;9.340;2022-12-18T07:51:23;57.75;;;23.02;;
485;SDS011;229;48.734;9.340;2022-12-18T07:53:50;58.03;;;23.55;;
485;SDS011;229;48.734;9.340;2022-12-18T07:56:17;59.75;;;23.30;;
485;SDS011;229;48.734;9.340;2022-12-18T07:58:45;52.40;;;23.25;;
485;SDS011;229;48.734;9.340;2022-12-18T08:01:12;60.60;;;24.73;;
485;SDS011;229;48.734;9.340;2022-12-18T08:03:39;58.80;;;23.92;;
485;SDS011;229;48.734;9.340;2022-12-18T08:06:08;64.82;;;23.73;;
485;SDS011;229;48.734;9.340;2022-12-18T08:08:37;65.45;;;26.70;;
485;SDS011;229;48.734;9.340;2022-12-18T08:11:05;51.97;;;24.45;;
485;SDS011;229;48.734;9.340;2022-12-18T08:13:32;57.65;;;24.45;;
485;SDS011;229;48.734;9.340;2022-12-18T08:16:00;72.05;;;27.17;;
485;SDS011;229;48.734;9.340;2022-12-18T08:18:28;64.68;;;25.00;;
485;SDS011;229;48.734;9.340;2022-12-18T08:20:55;76.65;;;27.40;;
485;SDS011;229;48.734;9.340;2022-12-18T08:23:23;81.70;;;29.83;;
485;SDS011;229;48.734;9.340;2022-12-18T08:25:51;74.53;;;30.10;;
485;SDS011;229;48.734;9.340;2022-12-18T08:28:18;83.88;;;27.17;;
485;SDS011;229;48.734;9.340;2022-12-18T08:30:46;77.18;;;29.20;;
485;SDS011;229;48.734;9.340;2022-12-18T08:33:13;72.50;;;29.00;;
485;SDS011;229;48.734;9.340;2022-12-18T08:35:40;74.57;;;29.73;;
485;SDS011;229;48.734;9.340;2022-12-18T08:38:07;70.15;;;29.15;;
485;SDS011;229;48.734;9.340;2022-12-18T08:40:34;74.22;;;29.95;;
485;SDS011;229;48.734;9.340;2022-12-18T08:43:03;52.08;;;24.92;;
485;SDS011;229;48.734;9.340;2022-12-18T08:45:47;68.68;;;25.55;;
485;SDS011;229;48.734;9.340;2022-12-18T08:48:15;84.35;;;30.85;;
485;SDS011;229;48.734;9.340;2022-12-18T08:50:42;72.50;;;28.70;;
485;SDS011;229;48.734;9.340;2022-12-18T08:53:09;75.43;;;33.75;;
485;SDS011;229;48.734;9.340;2022-12-18T08:55:36;85.35;;;31.67;;
485;SDS011;229;48.734;9.340;2022-12-18T08:58:05;69.22;;;28.80;;
485;SDS011;229;48.734;9.340;2022-12-18T09:00:32;69.60;;;30.30;;
485;SDS011;229;48.734;9.340;2022-12-18T09:02:59;61.95;;;30.27;;
485;SDS011;229;48.734;9.340;2022-12-18T09:05:27;67.57;;;30.35;;
485;SDS011;229;48.734;9.340;2022-12-18T09:07:54;64.20;;;29.73;;
485;SDS011;229;48.734;9.340;2022-12-18T09:10:21;65.00;;;29.55;;
485;SDS011;229;48.734;9.340;2022-12-18T09:12:48;62.10;;;29.38;;
485;SDS011;229;48.734;9.340;2022-12-18T09:15:17;61.30;;;30.45;;
485;SDS011;229;48.734;9.340;2022-12-18T09:17:44;56.45;;;29.25;;
485;SDS011;229;48.734;9.340;2022-12-18T09:20:11;68.70;;;33.25;;
485;SDS011;229;48.734;9.340;2022-12-18T09:22:38;67.03;;;41.53;;
485;SDS011;229;48.734;9.340;2022-12-18T09:25:05;66.13;;;33.47;;
485;SDS011;229;48.734;9.340;2022-12-18T09:27:33;65.25;;;32.35;;
485;SDS011;229;48.734;9.340;2022-12-18T09:30:01;61.15;;;31.52;;
485;SDS011;229;48.734;9.340;2022-12-18T09:32:29;65.93;;;34.63;;
485;SDS011;229;48.734;9.340;2022-12-18T09:34:56;60.00;;;39.30;;
485;SDS011;229;48.734;9.340;2022-12-18T09:37:24;66.78;;;33.50;;
485;SDS011;229;48.734;9.340;2022-12-18T09:39:51;75.80;;;33.38;;
485;SDS011;229;48.734;9.340;2022-12-18T09:42:19;59.80;;;34.45;;
485;SDS011;229;48.734;9.340;2022-12-18T09:44:48;62.80;;;38.97;;
485;SDS011;229;48.734;9.340;2022-12-18T09:47:17;66.20;;;34.65;;
485;SDS011;229;48.734;9.340;2022-12-18T09:49:47;64.07;;;40.45;;
485;SDS011;229;48.734;9.340;2022-12-18T09:52:17;59.97;;;38.10;;
485;SDS011;229;48.734;9.340;2022-12-18T09:54:46;67.72;;;38.13;;
485;SDS011;229;48.734;9.340;2022-12-18T09:57:15;59.95;;;39.35;;
485;SDS011;229;48.734;9.340;2022-12-18T09:59:43;64.85;;;40.22;;
485;SDS011;229;48.734;9.340;2022-12-18T10:02:14;62.88;;;39.05;;
485;SDS011;229;48.734;9.340;2022-12-18T10:04:42;68.18;;;41.92;;
485;SDS011;229;48.734;9.340;2022-12-18T10:07:12;66.93;;;41.65;;
485;SDS011;229;48.734;9.340;2022-12-18T10:09:41;67.85;;;40.45;;
485;SDS011;229;48.734;9.340;2022-12-18T10:12:13;72.07;;;42.50;;
485;SDS011;229;48.734;9.340;2022-12-18T10:14:45;66.53;;;39.95;;
485;SDS011;229;48.734;9.340;2022-12-18T10:17:17;62.40;;;40.30;;
485;SDS011;229;48.734;9.340;2022-12-18T10:19:47;75.03;;;41.53;;
485;SDS011;229;48.734;9.340;2022-12-18T10:22:21;64.30;;;40.25;;
485;SDS011;229;48.734;9.340;2022-12-18T10:24:53;66.18;;;41.55;;
485;SDS011;229;48.734;9.340;2022-12-18T10:27:25;80.80;;;43.70;;
485;SDS011;229;48.734;9.340;2022-12-18T10:29:53;70.15;;;34.80;;
485;SDS011;229;48.734;9.340;2022-12-18T10:32:21;73.55;;;33.10;;
485;SDS011;229;48.734;9.340;2022-12-18T10:34:51;63.05;;;32.50;;
485;SDS011;229;48.734;9.340;2022-12-18T10:37:21;70.50;;;43.30;;
485;SDS011;229;48.734;9.340;2022-12-18T10:40:04;79.47;;;32.90;;
485;SDS011;229;48.734;9.340;2022-12-18T10:42:33;69.22;;;34.72;;
485;SDS011;229;48.734;9.340;2022-12-18T10:45:00;68.60;;;30.17;;
485;SDS011;229;48.734;9.340;2022-12-18T10:47:28;73.00;;;30.50;;
485;SDS011;229;48.734;9.340;2022-12-18T10:49:55;67.55;;;31.77;;
485;SDS011;229;48.734;9.340;2022-12-18T10:52:24;66.57;;;41.15;;
485;SDS011;229;48.734;9.340;2022-12-18T10:54:53;76.63;;;32.08;;
485;SDS011;229;48.734;9.340;2022-12-18T10:57:34;65.80;;;31.20;;
485;SDS011;229;48.734;9.340;2022-12-18T11:00:19;59.70;;;30.30;;
485;SDS011;229;48.734;9.340;2022-12-18T11:02:47;69.05;;;31.85;;
485;SDS011;229;48.734;9.340;2022-12-18T11:05:25;60.95;;;31.05;;
485;SDS011;229;48.734;9.340;2022-12-18T11:07:54;72.43;;;42.88;;
485;SDS011;229;48.734;9.340;2022-12-18T11:10:25;69.63;;;41.58;;
485;SDS011;229;48.734;9.340;2022-12-18T11:12:52;69.43;;;42.25;;
485;SDS011;229;48.734;9.340;2022-12-18T11:15:20;68.93;;;42.17;;
485;SDS011;229;48.734;9.340;2022-12-18T11:17:48;71.70;;;33.90;;
485;SDS011;229;48.734;9.340;2022-12-18T11:20:20;72.90;;;35.40;;
485;SDS011;229;48.734;9.340;2022-12-18T11:22:55;64.88;;;42.75;;
485;SDS011;229;48.734;9.340;2022-12-18T11:25:23;71.13;;;43.20;;
485;SDS011;229;48.734;9.340;2022-12-18T11:27:51;73.03;;;44.85;;
485;SDS011;229;48.734;9.340;2022-12-18T11:30:22;65.38;;;42.72;;
485;SDS011;229;48.734;9.340;2022-12-18T11:32:51;69.72;;;42.40;;
485;SDS011;229;48.734;9.340;2022-12-18T11:35:19;67.80;;;43.90;;
485;SDS011;229;48.734;9.340;2022-12-18T11:37:48;71.55;;;44.63;;
485;SDS011;229;48.734;9.340;2022-12-18T11:40:18;65.95;;;41.40;;
485;SDS011;229;48.734;9.340;2022-12-18T11:42:48;67.07;;;43.08;;
485;SDS011;229;48.734;9.340;2022-12-18T11:45:29;67.85;;;44.13;;
485;SDS011;229;48.734;9.340;2022-12-18T11:47:59;66.90;;;42.97;;
485;SDS011;229;48.734;9.340;2022-12-18T11:50:29;67.90;;;42.30;;
485;SDS011;229;48.734;9.340;2022-12-18T11:52:58;67.63;;;41.95;;
485;SDS011;229;48.734;9.340;2022-12-18T11:55:30;69.85;;;42.10;;
485;SDS011;229;48.734;9.340;2022-12-18T11:58:03;67.25;;;42.00;;
485;SDS011;229;48.734;9.340;2022-12-18T12:00:32;70.90;;;44.22;;
485;SDS011;229;48.734;9.340;2022-12-18T12:03:11;69.47;;;44.40;;
485;SDS011;229;48.734;9.340;2022-12-18T12:05:45;75.55;;;44.05;;
485;SDS011;229;48.734;9.340;2022-12-18T12:08:17;69.72;;;43.50;;
485;SDS011;229;48.734;9.340;2022-12-18T12:10:52;72.53;;;43.35;;
485;SDS011;229;48.734;9.340;2022-12-18T12:13:28;70.07;;;41.97;;
485;SDS011;229;48.734;9.340;2022-12-18T12:18:45;74.05;;;41.75;;
485;SDS011;229;48.734;9.340;2022-12-18T12:21:18;69.93;;;42.67;;
485;SDS011;229;48.734;9.340;2022-12-18T12:23:48;79.28;;;44.95;;
485;SDS011;229;48.734;9.340;2022-12-18T12:26:22;73.15;;;43.95;;
485;SDS011;229;48.734;9.340;2022-12-18T12:28:54;80.82;;;46.70;;
485;SDS011;229;48.734;9.340;2022-12-18T12:31:26;76.90;;;43.40;;
485;SDS011;229;48.734;9.340;2022-12-18T12:33:57;71.28;;;41.88;;
485;SDS011;229;48.734;9.340;2022-12-18T12:36:29;69.70;;;42.10;;
485;SDS011;229;48.734;9.340;2022-12-18T12:38:58;72.50;;;43.22;;
485;SDS011;229;48.734;9.340;2022-12-18T12:41:30;70.45;;;43.17;;
485;SDS011;229;48.734;9.340;2022-12-18T12:44:16;69.57;;;42.55;;
485;SDS011;229;48.734;9.340;2022-12-18T12:46:46;77.05;;;44.10;;
485;SDS011;229;48.734;9.340;2022-12-18T12:49:15;77.07;;;44.65;;
485;SDS011;229;48.734;9.340;2022-12-18T12:51:43;74.13;;;42.70;;
485;SDS011;229;48.734;9.340;2022-12-18T12:54:13;76.93;;;45.65;;
485;SDS011;229;48.734;9.340;2022-12-18T12:56:44;74.65;;;43.20;;
485;SDS011;229;48.734;9.340;2022-12-18T12:59:15;88.63;;;46.40;;
485;SDS011;229;48.734;9.340;2022-12-18T13:01:49;77.22;;;45.90;;
485;SDS011;229;48.734;9.340;2022-12-18T13:04:20;85.57;;;43.40;;
485;SDS011;229;48.734;9.340;2022-12-18T13:06:50;80.88;;;46.25;;
485;SDS011;229;48.734;9.340;2022-12-18T13:09:20;77.68;;;45.70;;
485;SDS011;229;48.734;9.340;2022-12-18T13:11:49;77.38;;;45.45;;
485;SDS011;229;48.734;9.340;2022-12-18T13:14:34;81.13;;;46.10;;
485;SDS011;229;48.734;9.340;2022-12-18T13:19:49;82.35;;;45.35;;
485;SDS011;229;48.734;9.340;2022-12-18T13:22:20;81.47;;;45.83;;
485;SDS011;229;48.734;9.340;2022-12-18T13:24:48;81.00;;;45.25;;
485;SDS011;229;48.734;9.340;2022-12-18T13:29:59;78.63;;;43.38;;
485;SDS011;229;48.734;9.340;2022-12-18T13:32:26;82.32;;;44.28;;
485;SDS011;229;48.734;9.340;2022-12-18T13:37:40;74.43;;;43.08;;
485;SDS011;229;48.734;9.340;2022-12-18T13:42:49;82.32;;;45.60;;
485;SDS011;229;48.734;9.340;2022-12-18T13:45:37;73.90;;;43.75;;
485;SDS011;229;48.734;9.340;2022-12-18T13:48:10;72.57;;;44.90;;
485;SDS011;229;48.734;9.340;2022-12-18T13:50:41;70.25;;;43.58;;
485;SDS011;229;48.734;9.340;2022-12-18T13:53:16;78.60;;;44.75;;
485;SDS011;229;48.734;9.340;2022-12-18T13:55:45;71.68;;;44.20;;
485;SDS011;229;48.734;9.340;2022-12-18T13:58:12;74.30;;;44.25;;
485;SDS011;229;48.734;9.340;2022-12-18T14:00:44;79.32;;;45.33;;
485;SDS011;229;48.734;9.340;2022-12-18T14:03:16;75.32;;;43.35;;
485;SDS011;229;48.734;9.340;2022-12-18T14:05:44;76.18;;;43.33;;
485;SDS011;229;48.734;9.340;2022-12-18T14:08:13;82.70;;;48.10;;
485;SDS011;229;48.734;9.340;2022-12-18T14:10:45;76.10;;;45.08;;
485;SDS011;229;48.734;9.340;2022-12-18T14:13:14;80.10;;;44.85;;
485;SDS011;229;48.734;9.340;2022-12-18T14:15:43;79.63;;;45.45;;
485;SDS011;229;48.734;9.340;2022-12-18T14:18:15;79.90;;;45.80;;
485;SDS011;229;48.734;9.340;2022-12-18T14:20:45;70.57;;;42.42;;
485;SDS011;229;48.734;9.340;2022-12-18T14:23:27;82.28;;;45.85;;
485;SDS011;229;48.734;9.340;2022-12-18T14:25:56;77.03;;;43.67;;
485;SDS011;229;48.734;9.340;2022-12-18T14:28:24;70.65;;;41.15;;
485;SDS011;229;48.734;9.340;2022-12-18T14:30:53;78.85;;;43.30;;
485;SDS011;229;48.734;9.340;2022-12-18T14:33:21;78.13;;;43.20;;
485;SDS011;229;48.734;9.340;2022-12-18T14:35:53;70.63;;;43.53;;
485;SDS011;229;48.734;9.340;2022-12-18T14:38:21;77.78;;;41.90;;
485;SDS011;229;48.734;9.340;2022-12-18T14:40:51;72.28;;;41.90;;
485;SDS011;229;48.734;9.340;2022-12-18T14:43:19;76.63;;;42.45;;
485;SDS011;229;48.734;9.340;2022-12-18T14:45:47;71.75;;;42.25;;
485;SDS011;229;48.734;9.340;2022-12-18T14:48:17;69.07;;;40.60;;
485;SDS011;229;48.734;9.340;2022-12-18T14:50:44;68.30;;;39.08;;
485;SDS011;229;48.734;9.340;2022-12-18T14:53:18;66.20;;;38.67;;
485;SDS011;229;48.734;9.340;2022-12-18T14:55:49;71.88;;;40.15;;
485;SDS011;229;48.734;9.340;2022-12-18T14:58:18;79.72;;;41.47;;
485;SDS011;229;48.734;9.340;2022-12-18T15:00:45;72.25;;;39.85;;
485;SDS011;229;48.734;9.340;2022-12-18T15:03:24;71.60;;;40.60;;
485;SDS011;229;48.734;9.340;2022-12-18T15:05:51;75.78;;;40.85;;
485;SDS011;229;48.734;9.340;2022-12-18T15:08:29;79.50;;;43.10;;
485;SDS011;229;48.734;9.340;2022-12-18T15:10:57;75.43;;;42.00;;
485;SDS011;229;48.734;9.340;2022-12-18T15:13:24;80.00;;;43.45;;
485;SDS011;229;48.734;9.340;2022-12-18T15:15:52;67.85;;;42.00;;
485;SDS011;229;48.734;9.340;2022-12-18T15:18:23;75.28;;;42.58;;
485;SDS011;229;48.734;9.340;2022-12-18T15:20:55;76.13;;;43.92;;
485;SDS011;229;48.734;9.340;2022-12-18T15:23:25;80.35;;;43.55;;
485;SDS011;229;48.734;9.340;2022-12-18T15:25:56;69.13;;;41.22;;
485;SDS011;229;48.734;9.340;2022-12-18T15:28:24;76.13;;;41.80;;
485;SDS011;229;48.734;9.340;2022-12-18T15:31:05;75.38;;;44.80;;
485;SDS011;229;48.734;9.340;2022-12-18T15:33:35;72.13;;;40.45;;
485;SDS011;229;48.734;9.340;2022-12-18T15:36:03;68.55;;;40.45;;
485;SDS011;229;48.734;9.340;2022-12-18T15:38:34;77.95;;;42.25;;